createdAt,value
2022-07-29T00:00:02.734Z,7.4
2022-07-29T00:01:12.837Z,10.6
2022-07-29T00:02:21.985Z,12.2
2022-07-29T00:03:32.088Z,11.9
2022-07-29T00:04:42.218Z,5.4
2022-07-29T00:05:52.332Z,12.2
2022-07-29T00:07:02.457Z,12.2
2022-07-29T00:08:12.563Z,11.9
2022-07-29T00:09:22.681Z,11.6
2022-07-29T00:10:32.801Z,15.4
2022-07-29T00:11:42.922Z,6.4
2022-07-29T00:12:53.047Z,11.9
2022-07-29T00:14:03.151Z,12.2
2022-07-29T00:15:13.274Z,5.4
2022-07-29T00:16:23.384Z,10.9
2022-07-29T00:17:32.530Z,11.9
2022-07-29T00:18:42.651Z,16.1
2022-07-29T00:21:02.883Z,11.9
2022-07-29T00:22:12.995Z,11.9
2022-07-29T00:23:23.123Z,11.9
2022-07-29T00:24:33.233Z,20.6
2022-07-29T00:25:43.339Z,11.6
2022-07-29T00:26:53.468Z,16.4
2022-07-29T00:28:03.580Z,14.5
2022-07-29T00:29:13.706Z,12.2
2022-07-29T00:30:23.816Z,5.8
2022-07-29T00:31:33.935Z,4.8
2022-07-29T00:32:43.329Z,8
2022-07-29T00:33:53.199Z,10.6
2022-07-29T00:35:03.305Z,6.4
2022-07-29T00:36:13.423Z,8.3
2022-07-29T00:37:23.551Z,15.4
2022-07-29T00:38:33.656Z,11.9
2022-07-29T00:39:43.780Z,5.8
2022-07-29T00:42:04.000Z,11.2
2022-07-29T00:43:14.136Z,12.2
2022-07-29T00:44:24.252Z,11.6
2022-07-29T00:45:34.359Z,15.4
2022-07-29T00:46:44.475Z,11.6
2022-07-29T00:49:03.736Z,11.6
2022-07-29T00:50:13.864Z,19.9
2022-07-29T00:51:23.969Z,5.8
2022-07-29T00:52:34.089Z,11.6
2022-07-29T00:53:44.212Z,11.6
2022-07-29T00:54:54.327Z,11.2
2022-07-29T00:56:04.435Z,16.1
2022-07-29T00:57:14.567Z,11.6
2022-07-29T00:58:24.681Z,13.8
2022-07-29T00:59:34.805Z,15.1
2022-07-29T01:00:45.153Z,10.6
2022-07-29T01:01:55.024Z,16.7
2022-07-29T01:03:04.175Z,11.9
2022-07-29T01:04:14.280Z,11.6
2022-07-29T01:05:24.411Z,10.9
2022-07-29T01:06:34.514Z,11.6
2022-07-29T01:07:44.637Z,10.9
2022-07-29T01:10:04.870Z,11.6
2022-07-29T01:11:14.993Z,12.5
2022-07-29T01:12:25.116Z,11.2
2022-07-29T01:13:35.227Z,10.6
2022-07-29T01:14:45.334Z,11.2
2022-07-29T01:15:55.460Z,16.4
2022-07-29T01:17:05.573Z,10.9
2022-07-29T01:18:14.712Z,10.9
2022-07-29T01:19:24.839Z,11.9
2022-07-29T01:20:34.945Z,4.5
2022-07-29T01:21:45.077Z,10.6
2022-07-29T01:22:55.193Z,16.1
2022-07-29T01:24:05.296Z,11.2
2022-07-29T01:25:15.425Z,16.7
2022-07-29T01:26:25.533Z,17.7
2022-07-29T01:27:35.654Z,7.7
2022-07-29T01:28:45.775Z,10.9
2022-07-29T01:29:55.901Z,10.9
2022-07-29T01:31:06.247Z,11.2
2022-07-29T01:32:16.361Z,11.2
2022-07-29T01:33:25.253Z,11.6
2022-07-29T01:34:35.615Z,16.4
2022-07-29T01:35:45.469Z,11.2
2022-07-29T01:36:55.590Z,8.7
2022-07-29T01:38:05.703Z,10.6
2022-07-29T01:39:15.825Z,10.9
2022-07-29T01:40:25.945Z,10.9
2022-07-29T01:41:36.324Z,9.6
2022-07-29T01:42:46.176Z,10.9
2022-07-29T01:43:56.296Z,10.9
2022-07-29T01:45:06.404Z,10.9
2022-07-29T01:46:16.531Z,10.9
2022-07-29T01:47:26.641Z,10.9
2022-07-29T01:48:35.778Z,5.8
2022-07-29T01:49:45.898Z,9.6
2022-07-29T01:50:56.270Z,10.9
2022-07-29T01:52:06.126Z,4.8
2022-07-29T01:53:16.256Z,16.4
2022-07-29T01:54:26.363Z,11.6
2022-07-29T01:55:36.486Z,11.2
2022-07-29T01:56:46.611Z,14.8
2022-07-29T01:59:06.840Z,11.2
2022-07-29T02:00:16.968Z,7
2022-07-29T02:01:27.077Z,10.6
2022-07-29T02:02:37.187Z,4.8
2022-07-29T02:03:46.327Z,16.7
2022-07-29T02:04:56.451Z,17
2022-07-29T02:06:06.554Z,10.9
2022-07-29T02:07:16.682Z,11.2
2022-07-29T02:08:26.795Z,9.6
2022-07-29T02:09:36.927Z,12.2
2022-07-29T02:10:46.064Z,12.2
2022-07-29T02:11:56.173Z,17.4
2022-07-29T02:13:06.297Z,16.1
2022-07-29T02:14:16.405Z,11.2
2022-07-29T02:15:26.531Z,10.6
2022-07-29T02:16:36.639Z,10.3
2022-07-29T02:17:47.021Z,12.5
2022-07-29T02:18:56.874Z,4.5
2022-07-29T02:20:06.997Z,6.1
2022-07-29T02:21:17.117Z,10.9
2022-07-29T02:22:27.224Z,16.7
2022-07-29T02:23:37.349Z,10.6
2022-07-29T02:24:47.476Z,10.6
2022-07-29T02:27:06.718Z,11.2
2022-07-29T02:28:17.106Z,10.9
2022-07-29T02:29:27.215Z,5.4
2022-07-29T02:30:37.063Z,10.6
2022-07-29T02:31:47.178Z,3.8
2022-07-29T02:34:07.706Z,4.8
2022-07-29T02:35:17.542Z,5.1
2022-07-29T02:36:27.666Z,10.6
2022-07-29T02:37:37.768Z,10.6
2022-07-29T02:38:47.890Z,10.6
2022-07-29T02:39:58.015Z,14.1
2022-07-29T02:41:07.145Z,12.5
2022-07-29T02:42:17.263Z,4.5
2022-07-29T02:43:27.388Z,9.9
2022-07-29T02:44:37.502Z,4.1
2022-07-29T02:45:47.611Z,10.6
2022-07-29T02:48:07.847Z,12.2
2022-07-29T02:49:16.987Z,9.9
2022-07-29T02:50:26.126Z,4.1
2022-07-29T02:51:36.241Z,10.9
2022-07-29T02:52:46.364Z,11.9
2022-07-29T02:53:56.490Z,10.6
2022-07-29T02:55:06.593Z,3.5
2022-07-29T02:56:16.719Z,9.6
2022-07-29T02:57:27.099Z,10.9
2022-07-29T02:58:36.955Z,5.1
2022-07-29T02:59:47.064Z,14.1
2022-07-29T03:00:57.183Z,17
2022-07-29T03:02:06.342Z,10.3
2022-07-29T03:03:15.460Z,10.3
2022-07-29T03:04:25.588Z,2.9
2022-07-29T03:05:35.712Z,10.9
2022-07-29T03:06:45.813Z,9.3
2022-07-29T03:09:06.318Z,10.6
2022-07-29T03:10:16.177Z,15.7
2022-07-29T03:11:26.288Z,10.6
2022-07-29T03:12:36.408Z,10.9
2022-07-29T03:13:46.522Z,10.6
2022-07-29T03:14:56.653Z,10.6
2022-07-29T03:16:06.755Z,11.6
2022-07-29T03:17:16.880Z,10.3
2022-07-29T03:18:26.016Z,10.9
2022-07-29T03:19:36.140Z,11.6
2022-07-29T03:20:46.251Z,10.6
2022-07-29T03:21:56.372Z,16.1
2022-07-29T03:23:06.492Z,10.9
2022-07-29T03:24:16.603Z,16.4
2022-07-29T03:25:26.721Z,10.6
2022-07-29T03:26:36.831Z,10.6
2022-07-29T03:27:46.957Z,10.6
2022-07-29T03:28:57.067Z,10.3
2022-07-29T03:30:07.193Z,10.9
2022-07-29T03:31:17.320Z,7
2022-07-29T03:32:27.421Z,10.3
2022-07-29T03:33:36.556Z,10.6
2022-07-29T03:34:46.679Z,8
2022-07-29T03:35:56.798Z,10.6
2022-07-29T03:37:06.919Z,11.2
2022-07-29T03:38:17.036Z,16.4
2022-07-29T03:39:27.142Z,17
2022-07-29T03:40:37.275Z,10.6
2022-07-29T03:41:47.383Z,10.6
2022-07-29T03:42:57.511Z,16.4
2022-07-29T03:44:07.613Z,10.9
2022-07-29T03:45:17.000Z,11.2
2022-07-29T03:46:27.849Z,7.4
2022-07-29T03:47:37.973Z,9.3
2022-07-29T03:48:47.113Z,10.6
2022-07-29T03:49:57.232Z,10.9
2022-07-29T03:51:07.335Z,17.4
2022-07-29T03:52:17.467Z,10.6
2022-07-29T03:53:27.570Z,17
2022-07-29T03:54:37.699Z,11.9
2022-07-29T03:55:47.809Z,10.6
2022-07-29T03:56:57.939Z,15.7
2022-07-29T03:58:08.050Z,10.9
2022-07-29T03:59:18.169Z,3.8
2022-07-29T04:00:28.297Z,17.4
2022-07-29T04:01:38.406Z,6.1
2022-07-29T04:02:48.514Z,11.6
2022-07-29T04:03:57.654Z,10.9
2022-07-29T04:05:07.766Z,11.2
2022-07-29T04:06:17.881Z,19
2022-07-29T04:07:28.014Z,9.6
2022-07-29T04:08:38.135Z,11.6
2022-07-29T04:09:48.244Z,11.6
2022-07-29T04:10:58.362Z,12.8
2022-07-29T04:12:08.470Z,11.9
2022-07-29T04:13:18.598Z,11.6
2022-07-29T04:14:28.721Z,10.9
2022-07-29T04:15:38.838Z,11.9
2022-07-29T04:16:48.948Z,6.4
2022-07-29T04:17:59.076Z,11.2
2022-07-29T04:19:08.207Z,12.2
2022-07-29T04:20:18.319Z,12.5
2022-07-29T04:21:28.699Z,11.6
2022-07-29T04:22:38.554Z,15.1
2022-07-29T04:23:48.683Z,18.6
2022-07-29T04:24:58.793Z,12.5
2022-07-29T04:26:08.900Z,11.9
2022-07-29T04:27:19.028Z,1.6
2022-07-29T04:28:29.149Z,19.3
2022-07-29T04:29:39.251Z,12.2
2022-07-29T04:30:49.378Z,18.3
2022-07-29T04:31:59.502Z,5.8
2022-07-29T04:33:09.623Z,11.9
2022-07-29T04:35:28.861Z,6.7
2022-07-29T04:36:38.982Z,12.2
2022-07-29T04:37:49.106Z,19.3
2022-07-29T04:40:09.341Z,12.5
2022-07-29T04:41:19.462Z,9.3
2022-07-29T04:42:29.566Z,6.4
2022-07-29T04:43:39.960Z,12.5
2022-07-29T04:44:49.000Z,12.5
2022-07-29T04:45:59.928Z,7.7
2022-07-29T04:47:10.048Z,12.2
2022-07-29T04:48:20.155Z,18.3
2022-07-29T04:49:29.291Z,15.4
2022-07-29T04:50:39.417Z,13.2
2022-07-29T04:51:49.524Z,12.8
2022-07-29T04:54:09.757Z,12.8
2022-07-29T04:55:18.910Z,12.5
2022-07-29T04:56:28.041Z,9.3
2022-07-29T04:57:38.154Z,19
2022-07-29T04:58:48.540Z,5.8
2022-07-29T04:59:58.390Z,13.2
2022-07-29T05:01:08.779Z,10.6
2022-07-29T05:02:18.638Z,13.2
2022-07-29T05:03:28.740Z,5.4
2022-07-29T05:04:38.867Z,13.5
2022-07-29T05:05:48.987Z,18
2022-07-29T05:06:59.094Z,13.2
2022-07-29T05:08:08.247Z,12.8
2022-07-29T05:09:17.384Z,10.3
2022-07-29T05:10:27.486Z,13.2
2022-07-29T05:11:37.875Z,11.6
2022-07-29T05:12:47.729Z,12.2
2022-07-29T05:13:57.852Z,-3.3
2022-07-29T05:15:07.968Z,13.2
2022-07-29T05:16:18.088Z,14.1
2022-07-29T05:17:28.207Z,13.5
2022-07-29T05:18:38.582Z,18
2022-07-29T05:19:48.435Z,19.3
2022-07-29T05:20:58.558Z,13.2
2022-07-29T05:22:08.674Z,13.2
2022-07-29T05:23:18.783Z,18
2022-07-29T05:24:27.915Z,13.8
2022-07-29T05:25:38.043Z,13.2
2022-07-29T05:26:48.422Z,8.3
2022-07-29T05:27:58.277Z,19.9
2022-07-29T05:29:08.383Z,19.3
2022-07-29T05:30:18.509Z,13.2
2022-07-29T05:31:28.635Z,17.7
2022-07-29T05:32:38.740Z,14.8
2022-07-29T05:33:48.864Z,13.8
2022-07-29T05:34:58.973Z,15.1
2022-07-29T05:36:09.095Z,19.3
2022-07-29T05:37:19.220Z,12.2
2022-07-29T05:38:29.332Z,8.3
2022-07-29T05:39:38.473Z,7.7
2022-07-29T05:40:48.577Z,14.5
2022-07-29T05:41:58.974Z,13.8
2022-07-29T05:43:08.815Z,8.7
2022-07-29T05:44:18.935Z,14.8
2022-07-29T05:45:29.056Z,10.6
2022-07-29T05:46:39.165Z,9.6
2022-07-29T05:47:49.577Z,14.1
2022-07-29T05:48:59.417Z,14.5
2022-07-29T05:50:09.525Z,8.7
2022-07-29T05:51:19.639Z,13.8
2022-07-29T05:52:30.025Z,14.5
2022-07-29T05:53:39.880Z,14.8
2022-07-29T05:54:49.020Z,14.8
2022-07-29T05:55:59.121Z,14.1
2022-07-29T05:57:09.249Z,14.5
2022-07-29T05:58:19.355Z,14.5
2022-07-29T05:59:29.491Z,14.8
2022-07-29T06:00:39.592Z,14.5
2022-07-29T06:01:49.715Z,15.1
2022-07-29T06:04:09.948Z,20.6
2022-07-29T06:05:19.083Z,14.8
2022-07-29T06:06:29.212Z,14.8
2022-07-29T06:07:39.322Z,14.8
2022-07-29T06:08:49.444Z,20.3
2022-07-29T06:09:59.568Z,14.5
2022-07-29T06:11:09.675Z,20.6
2022-07-29T06:12:19.787Z,15.1
2022-07-29T06:13:29.919Z,14.8
2022-07-29T06:14:40.022Z,9
2022-07-29T06:15:50.144Z,15.4
2022-07-29T06:17:00.260Z,8
2022-07-29T06:18:10.375Z,15.1
2022-07-29T06:19:20.498Z,15.1
2022-07-29T06:20:29.626Z,9.9
2022-07-29T06:21:39.761Z,15.1
2022-07-29T06:22:49.866Z,21.2
2022-07-29T06:23:59.987Z,17.4
2022-07-29T06:25:10.109Z,15.1
2022-07-29T06:26:20.220Z,10.3
2022-07-29T06:27:30.345Z,15.7
2022-07-29T06:28:40.466Z,15.1
2022-07-29T06:29:50.575Z,15.4
2022-07-29T06:31:00.694Z,15.7
2022-07-29T06:32:10.816Z,20.6
2022-07-29T06:33:20.918Z,15.4
2022-07-29T06:34:31.310Z,15.4
2022-07-29T06:35:40.170Z,16.1
2022-07-29T06:36:50.306Z,15.7
2022-07-29T06:38:00.415Z,15.7
2022-07-29T06:39:10.537Z,15.4
2022-07-29T06:40:20.641Z,16.1
2022-07-29T06:41:30.761Z,16.1
2022-07-29T06:42:40.888Z,9.3
2022-07-29T06:43:51.260Z,10.3
2022-07-29T06:45:01.110Z,16.1
2022-07-29T06:46:11.235Z,16.1
2022-07-29T06:47:21.346Z,20.9
2022-07-29T06:48:31.470Z,9.9
2022-07-29T06:49:41.590Z,17.4
2022-07-29T06:50:50.723Z,16.7
2022-07-29T06:53:10.964Z,18.6
2022-07-29T06:54:21.342Z,16.4
2022-07-29T06:55:31.188Z,16.7
2022-07-29T06:56:41.312Z,16.1
2022-07-29T06:57:51.426Z,10.6
2022-07-29T06:59:01.547Z,16.4
2022-07-29T07:00:11.653Z,20.6
2022-07-29T07:01:21.771Z,16.7
2022-07-29T07:02:31.900Z,16.4
2022-07-29T07:03:42.019Z,17
2022-07-29T07:04:52.393Z,20.6
2022-07-29T07:06:01.273Z,16.7
2022-07-29T07:07:11.381Z,11.2
2022-07-29T07:08:21.489Z,10.3
2022-07-29T07:09:31.625Z,11.9
2022-07-29T07:11:51.849Z,17
2022-07-29T07:13:01.977Z,11.9
2022-07-29T07:14:12.086Z,17
2022-07-29T07:15:22.212Z,17
2022-07-29T07:16:32.316Z,17
2022-07-29T07:17:42.446Z,11.9
2022-07-29T07:18:52.568Z,18
2022-07-29T07:20:02.673Z,22.2
2022-07-29T07:21:11.812Z,17.7
2022-07-29T07:22:21.938Z,12.5
2022-07-29T07:23:32.046Z,11.9
2022-07-29T07:24:42.160Z,17.4
2022-07-29T07:25:52.282Z,24.1
2022-07-29T07:27:02.410Z,22.2
2022-07-29T07:28:12.785Z,12.2
2022-07-29T07:29:22.629Z,12.8
2022-07-29T07:30:32.754Z,18
2022-07-29T07:31:42.864Z,17.4
2022-07-29T07:32:52.988Z,19
2022-07-29T07:34:03.115Z,18.3
2022-07-29T07:35:13.225Z,18.6
2022-07-29T07:36:22.364Z,19
2022-07-29T07:37:32.481Z,19
2022-07-29T07:38:42.592Z,19
2022-07-29T07:39:52.704Z,17
2022-07-29T07:42:12.948Z,19.3
2022-07-29T07:43:23.073Z,20.3
2022-07-29T07:44:33.194Z,20.6
2022-07-29T07:45:43.305Z,19.6
2022-07-29T07:46:53.429Z,19.9
2022-07-29T07:48:03.546Z,20.6
2022-07-29T07:49:13.650Z,20.3
2022-07-29T07:50:23.774Z,17
2022-07-29T07:51:32.911Z,20.6
2022-07-29T07:52:43.035Z,16.1
2022-07-29T07:53:53.145Z,20.6
2022-07-29T07:55:03.272Z,21.5
2022-07-29T07:56:13.385Z,21.2
2022-07-29T07:57:23.504Z,15.1
2022-07-29T07:58:33.614Z,21.2
2022-07-29T07:59:43.740Z,25.1
2022-07-29T08:00:53.850Z,21.2
2022-07-29T08:02:03.978Z,27.7
2022-07-29T08:03:14.096Z,21.2
2022-07-29T08:04:24.207Z,23.8
2022-07-29T08:05:34.332Z,17.4
2022-07-29T08:06:43.449Z,21.2
2022-07-29T08:07:53.831Z,21.5
2022-07-29T08:10:13.810Z,21.2
2022-07-29T08:11:23.931Z,18.3
2022-07-29T08:12:34.054Z,21.5
2022-07-29T08:13:44.158Z,21.2
2022-07-29T08:14:54.544Z,20.9
2022-07-29T08:16:04.403Z,22.2
2022-07-29T08:17:14.512Z,24.8
2022-07-29T08:18:24.625Z,26.1
2022-07-29T08:19:34.750Z,20.9
2022-07-29T08:20:44.876Z,22.5
2022-07-29T08:21:54.002Z,23.5
2022-07-29T08:24:14.232Z,13.8
2022-07-29T08:25:24.357Z,15.4
2022-07-29T08:26:34.484Z,19.9
2022-07-29T08:27:44.586Z,24.8
2022-07-29T08:28:54.709Z,20.9
2022-07-29T08:30:04.828Z,16.7
2022-07-29T08:31:14.949Z,20.6
2022-07-29T08:32:25.058Z,26.4
2022-07-29T08:33:35.178Z,26.1
2022-07-29T08:34:45.563Z,25.7
2022-07-29T08:35:55.425Z,15.7
2022-07-29T08:37:04.559Z,21.2
2022-07-29T08:38:14.665Z,20.9
2022-07-29T08:39:24.778Z,20.9
2022-07-29T08:40:34.900Z,14.8
2022-07-29T08:41:45.025Z,20.6
2022-07-29T08:42:55.133Z,22.5
2022-07-29T08:44:05.256Z,19.3
2022-07-29T08:45:15.381Z,20.9
2022-07-29T08:46:25.000Z,21.5
2022-07-29T08:47:35.614Z,18
2022-07-29T08:48:45.715Z,20.9
2022-07-29T08:49:55.841Z,22.2
2022-07-29T08:51:05.950Z,21.2
2022-07-29T08:52:15.084Z,21.5
2022-07-29T08:53:25.214Z,21.5
2022-07-29T08:54:35.321Z,21.9
2022-07-29T08:55:45.442Z,13.2
2022-07-29T08:56:55.567Z,25.7
2022-07-29T08:59:15.792Z,21.9
2022-07-29T09:00:25.921Z,28
2022-07-29T09:01:36.025Z,21.9
2022-07-29T09:02:46.148Z,22.5
2022-07-29T09:03:56.256Z,27
2022-07-29T09:05:06.374Z,22.2
2022-07-29T09:06:16.754Z,28.3
2022-07-29T09:07:25.630Z,22.5
2022-07-29T09:08:35.754Z,28
2022-07-29T09:09:45.877Z,22.8
2022-07-29T09:10:55.986Z,22.2
2022-07-29T09:12:06.099Z,21.5
2022-07-29T09:13:16.228Z,22.2
2022-07-29T09:14:26.334Z,22.5
2022-07-29T09:15:36.454Z,17.4
2022-07-29T09:16:46.582Z,18
2022-07-29T09:17:56.689Z,17
2022-07-29T09:19:06.810Z,22.2
2022-07-29T09:20:16.932Z,22.2
2022-07-29T09:21:27.051Z,22.8
2022-07-29T09:22:36.172Z,16.1
2022-07-29T09:23:46.296Z,18
2022-07-29T09:24:56.416Z,22.2
2022-07-29T09:26:06.524Z,23.5
2022-07-29T09:27:16.648Z,22.2
2022-07-29T09:28:26.753Z,22.5
2022-07-29T09:29:36.877Z,18
2022-07-29T09:30:47.005Z,22.2
2022-07-29T09:33:07.238Z,22.5
2022-07-29T09:34:17.607Z,22.2
2022-07-29T09:35:27.719Z,22.5
2022-07-29T09:36:37.582Z,22.2
2022-07-29T09:37:46.716Z,23.8
2022-07-29T09:38:56.825Z,22.5
2022-07-29T09:41:17.066Z,22.2
2022-07-29T09:42:27.194Z,31.2
2022-07-29T09:43:37.303Z,24.1
2022-07-29T09:44:47.414Z,22.5
2022-07-29T09:45:57.539Z,21.2
2022-07-29T09:47:07.660Z,28
2022-07-29T09:48:18.030Z,22.5
2022-07-29T09:49:27.885Z,20.6
2022-07-29T09:50:38.011Z,22.8
2022-07-29T09:51:48.116Z,22.5
2022-07-29T09:52:57.257Z,27.3
2022-07-29T09:54:07.382Z,22.5
2022-07-29T09:55:17.488Z,21.5
2022-07-29T09:56:27.612Z,22.5
2022-07-29T09:57:37.994Z,22.5
2022-07-29T09:58:47.841Z,22.5
2022-07-29T09:59:57.242Z,16.7
2022-07-29T10:02:17.213Z,22.5
2022-07-29T10:03:27.334Z,22.8
2022-07-29T10:04:37.459Z,20.3
2022-07-29T10:05:47.844Z,22.8
2022-07-29T10:06:57.682Z,20.6
2022-07-29T10:08:07.807Z,22.8
2022-07-29T10:09:17.933Z,22.8
2022-07-29T10:10:28.050Z,26.4
2022-07-29T10:11:38.000Z,23.2
2022-07-29T10:12:48.265Z,28
2022-07-29T10:13:58.392Z,23.2
2022-07-29T10:15:07.529Z,23.8
2022-07-29T10:16:17.635Z,19
2022-07-29T10:18:37.887Z,21.5
2022-07-29T10:19:48.003Z,22.8
2022-07-29T10:20:58.104Z,19
2022-07-29T10:22:08.227Z,29
2022-07-29T10:23:18.346Z,19
2022-07-29T10:24:28.459Z,23.2
2022-07-29T10:25:38.573Z,23.5
2022-07-29T10:26:48.701Z,23.5
2022-07-29T10:27:58.808Z,30.2
2022-07-29T10:30:19.050Z,25.1
2022-07-29T10:31:28.190Z,25.4
2022-07-29T10:32:38.296Z,25.4
2022-07-29T10:33:48.423Z,30.6
2022-07-29T10:34:58.536Z,25.1
2022-07-29T10:36:08.659Z,25.7
2022-07-29T10:37:19.047Z,26.4
2022-07-29T10:38:28.894Z,28.3
2022-07-29T10:39:39.018Z,30.2
2022-07-29T10:40:49.122Z,21.2
2022-07-29T10:41:59.249Z,27.3
2022-07-29T10:43:09.370Z,18.6
2022-07-29T10:44:19.736Z,27
2022-07-29T10:45:29.594Z,26.7
2022-07-29T10:46:38.732Z,31.9
2022-07-29T10:47:48.839Z,26.4
2022-07-29T10:48:58.965Z,26.1
2022-07-29T10:50:09.074Z,26.4
2022-07-29T10:51:19.200Z,27.3
2022-07-29T10:52:29.310Z,27
2022-07-29T10:53:39.432Z,26.1
2022-07-29T10:55:59.673Z,26.4
2022-07-29T10:57:09.793Z,24.4
2022-07-29T10:58:19.910Z,31.5
2022-07-29T10:59:30.014Z,27
2022-07-29T11:00:40.142Z,27
2022-07-29T11:01:49.276Z,32.5
2022-07-29T11:02:59.384Z,28.3
2022-07-29T11:04:09.505Z,27.7
2022-07-29T11:05:19.635Z,22.8
2022-07-29T11:06:29.748Z,27.7
2022-07-29T11:07:39.859Z,27
2022-07-29T11:08:49.982Z,27
2022-07-29T11:10:00.106Z,27
2022-07-29T11:12:20.334Z,30.2
2022-07-29T11:13:30.442Z,21.9
2022-07-29T11:14:40.573Z,26.4
2022-07-29T11:15:50.679Z,26.1
2022-07-29T11:17:00.076Z,31.2
2022-07-29T11:18:09.935Z,22.5
2022-07-29T11:19:20.044Z,26.1
2022-07-29T11:20:30.163Z,26.7
2022-07-29T11:21:40.279Z,20.6
2022-07-29T11:22:50.406Z,25.7
2022-07-29T11:24:00.514Z,29.9
2022-07-29T11:25:10.639Z,29
2022-07-29T11:26:20.761Z,25.7
2022-07-29T11:27:30.877Z,30.6
2022-07-29T11:29:51.112Z,20.6
2022-07-29T11:31:01.228Z,27.7
2022-07-29T11:32:10.369Z,25.4
2022-07-29T11:33:20.485Z,25.1
2022-07-29T11:34:30.604Z,28
2022-07-29T11:35:40.706Z,25.1
2022-07-29T11:36:50.830Z,20.6
2022-07-29T11:38:00.945Z,30.9
2022-07-29T11:40:21.176Z,25.1
2022-07-29T11:41:31.297Z,22.8
2022-07-29T11:42:41.672Z,24.4
2022-07-29T11:43:51.527Z,29.6
2022-07-29T11:45:01.652Z,25.4
2022-07-29T11:46:11.777Z,25.1
2022-07-29T11:47:20.897Z,27.3
2022-07-29T11:48:31.028Z,20.9
2022-07-29T11:49:41.135Z,25.7
2022-07-29T11:50:51.261Z,21.5
2022-07-29T11:52:01.368Z,21.9
2022-07-29T11:53:11.498Z,27.3
2022-07-29T11:54:21.614Z,26.4
2022-07-29T11:55:31.721Z,27
2022-07-29T11:56:41.838Z,27.3
2022-07-29T11:57:51.970Z,30.2
2022-07-29T11:59:02.071Z,23.5
2022-07-29T12:00:12.188Z,21.9
2022-07-29T12:01:22.308Z,27.3
2022-07-29T12:02:31.448Z,27.7
2022-07-29T12:03:41.563Z,33.5
2022-07-29T12:04:51.687Z,29.9
2022-07-29T12:06:01.794Z,21.9
2022-07-29T12:07:11.924Z,26.1
2022-07-29T12:08:22.045Z,30.9
2022-07-29T12:09:32.147Z,33.8
2022-07-29T12:10:42.273Z,31.5
2022-07-29T12:11:52.382Z,27.3
2022-07-29T12:13:02.498Z,29
2022-07-29T12:14:12.616Z,28
2022-07-29T12:15:22.744Z,21.2
2022-07-29T12:16:32.863Z,28
2022-07-29T12:17:41.988Z,27.7
2022-07-29T12:18:52.102Z,21.2
2022-07-29T12:20:02.234Z,24.4
2022-07-29T12:21:12.354Z,27.3
2022-07-29T12:22:22.459Z,26.7
2022-07-29T12:23:32.590Z,26.4
2022-07-29T12:24:42.693Z,21.2
2022-07-29T12:25:52.815Z,26.1
2022-07-29T12:27:02.934Z,26.1
2022-07-29T12:28:13.059Z,31.2
2022-07-29T12:29:23.165Z,25.7
2022-07-29T12:30:33.286Z,24.8
2022-07-29T12:31:43.408Z,21.2
2022-07-29T12:32:52.545Z,25.7
2022-07-29T12:34:02.650Z,30.6
2022-07-29T12:35:12.775Z,25.1
2022-07-29T12:36:22.899Z,25.4
2022-07-29T12:37:33.020Z,26.7
2022-07-29T12:38:43.118Z,22.8
2022-07-29T12:39:53.510Z,25.4
2022-07-29T12:41:03.361Z,27.7
2022-07-29T12:43:23.596Z,25.1
2022-07-29T12:44:33.719Z,25.1
2022-07-29T12:45:44.091Z,23.5
2022-07-29T12:46:53.947Z,31.2
2022-07-29T12:48:03.084Z,25.1
2022-07-29T12:51:33.440Z,21.2
2022-07-29T12:52:42.578Z,25.1
2022-07-29T12:53:51.718Z,30.9
2022-07-29T12:55:01.832Z,25.4
2022-07-29T12:57:22.076Z,25.1
2022-07-29T12:58:32.198Z,25.1
2022-07-29T12:59:42.312Z,27.3
2022-07-29T13:00:52.434Z,20.3
2022-07-29T13:02:02.533Z,25.4
2022-07-29T13:03:12.660Z,26.1
2022-07-29T13:04:22.768Z,25.7
2022-07-29T13:05:32.898Z,27.7
2022-07-29T13:06:43.003Z,20.9
2022-07-29T13:07:53.126Z,25.7
2022-07-29T13:09:02.257Z,24.1
2022-07-29T13:11:22.504Z,20.6
2022-07-29T13:12:31.644Z,30.2
2022-07-29T13:13:40.781Z,24.8
2022-07-29T13:14:50.904Z,25.4
2022-07-29T13:16:01.005Z,21.9
2022-07-29T13:18:21.245Z,25.4
2022-07-29T13:19:31.356Z,25.4
2022-07-29T13:20:41.484Z,25.7
2022-07-29T13:21:51.604Z,28
2022-07-29T13:23:01.726Z,27.3
2022-07-29T13:24:11.834Z,22.5
2022-07-29T13:25:21.957Z,25.7
2022-07-29T13:26:32.063Z,26.1
2022-07-29T13:27:42.181Z,25.7
2022-07-29T13:28:51.316Z,27.7
2022-07-29T13:30:01.439Z,25.4
2022-07-29T13:31:11.551Z,27.7
2022-07-29T13:32:21.675Z,25.4
2022-07-29T13:33:31.799Z,25.1
2022-07-29T13:34:41.903Z,25.1
2022-07-29T13:35:52.028Z,26.4
2022-07-29T13:38:12.257Z,25.7
2022-07-29T13:39:22.382Z,25.7
2022-07-29T13:40:32.502Z,25.4
2022-07-29T13:41:42.626Z,25.7
2022-07-29T13:42:51.767Z,26.4
2022-07-29T13:44:00.901Z,30.6
2022-07-29T13:45:11.005Z,26.4
2022-07-29T13:46:21.134Z,21.2
2022-07-29T13:47:31.242Z,26.1
2022-07-29T13:48:41.361Z,26.1
2022-07-29T13:49:51.489Z,29
2022-07-29T13:51:01.861Z,26.7
2022-07-29T13:52:11.724Z,29.3
2022-07-29T13:53:21.829Z,26.4
2022-07-29T13:54:31.237Z,26.7
2022-07-29T13:55:40.112Z,26.4
2022-07-29T13:56:49.051Z,22.8
2022-07-29T13:57:59.374Z,26.1
2022-07-29T13:59:09.499Z,27
2022-07-29T14:00:19.602Z,26.4
2022-07-29T14:01:29.720Z,30.6
2022-07-29T14:02:39.839Z,26.7
2022-07-29T14:03:49.962Z,22.5
2022-07-29T14:05:00.071Z,29.6
2022-07-29T14:06:10.196Z,26.1
2022-07-29T14:07:20.307Z,28.6
2022-07-29T14:08:30.428Z,25.7
2022-07-29T14:09:40.552Z,25.7
2022-07-29T14:10:50.673Z,25.4
2022-07-29T14:14:20.043Z,25.7
2022-07-29T14:15:29.178Z,24.1
2022-07-29T14:16:38.308Z,25.4
2022-07-29T14:17:48.439Z,25.7
2022-07-29T14:18:58.547Z,18
2022-07-29T14:21:18.781Z,28.6
2022-07-29T14:22:28.904Z,25.1
2022-07-29T14:23:39.009Z,25.4
2022-07-29T14:24:49.132Z,25.1
2022-07-29T14:25:59.240Z,24.4
2022-07-29T14:27:09.360Z,19.9
2022-07-29T14:28:19.484Z,25.7
2022-07-29T14:29:29.593Z,30.2
2022-07-29T14:30:39.717Z,25.4
2022-07-29T14:31:48.853Z,25.4
2022-07-29T14:32:58.961Z,23.8
2022-07-29T14:35:19.214Z,24.8
2022-07-29T14:36:28.338Z,30.2
2022-07-29T14:37:37.490Z,25.4
2022-07-29T14:38:47.593Z,24.8
2022-07-29T14:39:57.721Z,25.1
2022-07-29T14:41:07.826Z,25.4
2022-07-29T14:42:17.953Z,25.1
2022-07-29T14:43:28.073Z,26.4
2022-07-29T14:44:38.181Z,25.7
2022-07-29T14:45:48.303Z,25.4
2022-07-29T14:46:58.424Z,25.4
2022-07-29T14:48:08.534Z,27.7
2022-07-29T14:49:17.688Z,20.6
2022-07-29T14:50:26.631Z,25.7
2022-07-29T14:51:36.929Z,25.4
2022-07-29T14:52:47.057Z,25.4
2022-07-29T14:53:57.171Z,28.6
2022-07-29T14:55:07.295Z,24.8
2022-07-29T14:56:17.674Z,19.9
2022-07-29T14:57:27.340Z,25.1
2022-07-29T14:58:37.638Z,24.8
2022-07-29T14:59:47.760Z,19.9
2022-07-29T15:00:57.886Z,24.8
2022-07-29T15:02:07.016Z,24.8
2022-07-29T15:03:16.151Z,25.1
2022-07-29T15:04:26.269Z,29
2022-07-29T15:06:46.509Z,24.4
2022-07-29T15:07:56.634Z,24.4
2022-07-29T15:09:06.740Z,24.4
2022-07-29T15:11:26.795Z,25.1
2022-07-29T15:12:37.100Z,25.4
2022-07-29T15:13:47.027Z,26.7
2022-07-29T15:14:57.326Z,24.4
2022-07-29T15:16:07.438Z,19.9
2022-07-29T15:17:16.587Z,24.4
2022-07-29T15:18:25.720Z,29
2022-07-29T15:19:35.650Z,24.8
2022-07-29T15:20:45.956Z,24.1
2022-07-29T15:21:56.063Z,24.4
2022-07-29T15:23:06.193Z,24.1
2022-07-29T15:24:16.314Z,21.5
2022-07-29T15:25:26.422Z,24.1
2022-07-29T15:26:36.821Z,19.6
2022-07-29T15:28:56.775Z,23.8
2022-07-29T15:30:06.892Z,24.1
2022-07-29T15:31:16.832Z,24.1
2022-07-29T15:32:27.129Z,23.5
2022-07-29T15:33:36.266Z,24.1
2022-07-29T15:34:46.390Z,30.2
2022-07-29T15:35:56.314Z,23.8
2022-07-29T15:37:06.619Z,28
2022-07-29T15:39:26.858Z,24.8
2022-07-29T15:40:35.995Z,29
2022-07-29T15:41:45.131Z,19
2022-07-29T15:42:55.245Z,24.8
2022-07-29T15:45:15.295Z,24.8
2022-07-29T15:46:25.607Z,24.1
2022-07-29T15:47:35.713Z,29.9
2022-07-29T15:48:45.839Z,29
2022-07-29T15:49:55.965Z,24.1
2022-07-29T15:51:06.067Z,25.1
2022-07-29T15:52:16.192Z,27
2022-07-29T15:53:26.123Z,24.4
2022-07-29T15:54:36.419Z,23.8
2022-07-29T15:55:46.364Z,23.8
2022-07-29T15:56:55.677Z,19.6
2022-07-29T15:58:05.792Z,29
2022-07-29T15:59:15.740Z,19.3
2022-07-29T16:00:26.025Z,24.1
2022-07-29T16:01:36.146Z,23.8
2022-07-29T16:02:46.267Z,17
2022-07-29T16:03:56.380Z,18.3
2022-07-29T16:05:06.508Z,23.8
2022-07-29T16:06:15.643Z,23.5
2022-07-29T16:07:24.772Z,29
2022-07-29T16:08:34.896Z,23.5
2022-07-29T16:09:45.012Z,23.5
2022-07-29T16:10:55.137Z,23.2
2022-07-29T16:12:05.244Z,19.6
2022-07-29T16:13:15.375Z,23.8
2022-07-29T16:14:25.491Z,23.5
2022-07-29T16:15:35.907Z,19.9
2022-07-29T16:16:45.730Z,23.5
2022-07-29T16:17:55.838Z,23.5
2022-07-29T16:19:04.980Z,18.3
2022-07-29T16:20:14.112Z,23.5
2022-07-29T16:21:24.237Z,23.2
2022-07-29T16:22:34.364Z,22.8
2022-07-29T16:23:44.469Z,20.9
2022-07-29T16:24:54.597Z,23.2
2022-07-29T16:27:14.817Z,23.2
2022-07-29T16:28:24.933Z,29.3
2022-07-29T16:29:35.066Z,24.4
2022-07-29T16:30:45.171Z,23.2
2022-07-29T16:31:55.292Z,28.3